Time;durP1;ratioP1;P1;durP2;ratioP2;P2;SDS_P1;SDS_P2;PMS_P1;PMS_P2;Temp;Humidity;BMP_temperature;BMP_pressure;BME280_temperature;BME280_humidity;BME280_pressure;Samples;Min_cycle;Max_cycle;Signal;HPM_P1;HPM_P2
2022/07/18 00:00:37;;;;;;;6.13;3.78;;;16.70;99.90;;;;;;5113865;28;20448;-79
2022/07/18 00:03:04;;;;;;;7.10;3.47;;;16.60;99.90;;;;;;5113376;28;20047;-79
2022/07/18 00:05:32;;;;;;;6.82;4.38;;;16.60;99.90;;;;;;5095531;28;20052;-80
2022/07/18 00:07:59;;;;;;;10.35;4.43;;;16.60;99.90;;;;;;5131808;28;20059;-79
2022/07/18 00:10:26;;;;;;;8.60;4.50;;;16.60;99.90;;;;;;5099298;28;20051;-78
2022/07/18 00:12:53;;;;;;;6.35;4.25;;;16.60;99.90;;;;;;5095922;28;20388;-80
2022/07/18 00:15:20;;;;;;;8.02;4.30;;;16.50;99.90;;;;;;5096100;28;20491;-79
2022/07/18 00:17:47;;;;;;;10.40;5.07;;;16.60;99.90;;;;;;5096071;28;20437;-79
2022/07/18 00:20:14;;;;;;;6.72;4.65;;;16.50;99.90;;;;;;5112403;28;20054;-78
2022/07/18 00:22:42;;;;;;;7.00;4.45;;;16.50;99.90;;;;;;5096058;28;20048;-77
2022/07/18 00:25:09;;;;;;;7.22;4.47;;;16.50;99.90;;;;;;5095724;28;20052;-78
2022/07/18 00:27:36;;;;;;;9.73;5.03;;;16.50;99.90;;;;;;5117749;28;20114;-78
2022/07/18 00:30:05;;;;;;;8.30;5.03;;;16.50;99.90;;;;;;5134556;28;20051;-77
2022/07/18 00:32:32;;;;;;;8.52;4.82;;;16.50;99.90;;;;;;5115199;28;20050;-78
2022/07/18 00:34:59;;;;;;;8.93;4.40;;;16.40;99.90;;;;;;5116168;28;20051;-80
2022/07/18 00:37:26;;;;;;;7.22;4.72;;;16.40;99.90;;;;;;5116032;28;20107;-79
2022/07/18 00:39:54;;;;;;;12.13;4.88;;;16.40;99.90;;;;;;5133749;28;20043;-79
2022/07/18 00:42:21;;;;;;;8.30;3.78;;;16.40;99.90;;;;;;5115595;28;20562;-80
2022/07/18 00:44:54;;;;;;;5.05;3.45;;;16.30;99.90;;;;;;5134477;28;20055;-79
2022/07/18 00:47:21;;;;;;;8.40;3.95;;;16.30;99.90;;;;;;5133808;27;20081;-80
2022/07/18 00:49:48;;;;;;;7.68;4.40;;;16.20;99.90;;;;;;5134562;28;20039;-80
2022/07/18 00:52:15;;;;;;;8.90;3.65;;;16.20;99.90;;;;;;5132730;28;20509;-80
2022/07/18 00:54:42;;;;;;;5.60;4.07;;;16.20;99.90;;;;;;5114462;28;20055;-78
2022/07/18 00:57:11;;;;;;;7.45;4.50;;;16.20;99.90;;;;;;5116711;28;20117;-79
2022/07/18 01:02:24;;;;;;;6.15;3.65;;;16.20;99.90;;;;;;5095362;28;20141;-79
2022/07/18 01:04:51;;;;;;;6.90;4.47;;;16.10;99.90;;;;;;5095934;28;20407;-79
2022/07/18 01:07:17;;;;;;;7.75;4.47;;;16.10;99.90;;;;;;5116923;28;20051;-78
2022/07/18 01:09:44;;;;;;;8.13;4.68;;;16.10;99.90;;;;;;5099196;28;20047;-78
2022/07/18 01:12:13;;;;;;;8.38;4.72;;;16.10;99.90;;;;;;5117182;28;20051;-78
2022/07/18 01:14:40;;;;;;;8.27;4.75;;;16.10;99.90;;;;;;5098973;28;20051;-79
2022/07/18 01:17:18;;;;;;;11.88;4.95;;;16.10;99.90;;;;;;5117476;28;20051;-79
2022/07/18 01:19:46;;;;;;;6.07;4.47;;;16.10;99.90;;;;;;5117500;28;20051;-80
2022/07/18 01:22:16;;;;;;;9.10;4.65;;;16.10;99.90;;;;;;5116842;28;20047;-79
2022/07/18 01:24:43;;;;;;;9.23;4.93;;;16.10;99.90;;;;;;5100461;28;20058;-79
2022/07/18 01:27:14;;;;;;;6.97;4.68;;;16.00;99.90;;;;;;5098471;28;20051;-79
2022/07/18 01:29:41;;;;;;;6.30;4.10;;;16.00;99.90;;;;;;5098251;28;20055;-79
2022/07/18 01:32:09;;;;;;;6.30;4.28;;;16.00;99.90;;;;;;5098517;28;20051;-79
2022/07/18 01:34:36;;;;;;;9.65;4.55;;;16.00;99.90;;;;;;5098348;28;20055;-78
2022/07/18 01:37:03;;;;;;;10.55;4.47;;;15.90;99.90;;;;;;5116227;28;20051;-78
2022/07/18 01:39:32;;;;;;;7.95;4.55;;;15.90;99.90;;;;;;5115198;27;20530;-77
2022/07/18 01:42:00;;;;;;;6.60;4.07;;;15.90;99.90;;;;;;5118466;27;20388;-78
2022/07/18 01:44:28;;;;;;;8.77;4.85;;;15.90;99.90;;;;;;5118356;27;20051;-78
2022/07/18 01:46:55;;;;;;;6.68;4.45;;;15.90;99.90;;;;;;5118752;27;20112;-78
2022/07/18 01:49:24;;;;;;;7.57;4.72;;;15.90;99.90;;;;;;5136483;27;20043;-79
2022/07/18 01:51:53;;;;;;;7.43;4.85;;;15.90;99.90;;;;;;5126672;27;20047;-78
2022/07/18 01:54:21;;;;;;;8.60;4.90;;;15.90;99.90;;;;;;5097257;28;20568;-77
2022/07/18 01:56:49;;;;;;;7.20;5.05;;;15.90;99.90;;;;;;5097529;28;20051;-78
2022/07/18 01:59:17;;;;;;;7.63;5.25;;;15.90;99.90;;;;;;5098336;28;20689;-78
2022/07/18 02:01:44;;;;;;;9.38;5.00;;;15.90;99.90;;;;;;5097439;28;20428;-78
2022/07/18 02:04:11;;;;;;;8.95;4.80;;;15.90;99.90;;;;;;5115669;28;20047;-78
2022/07/18 02:06:38;;;;;;;10.30;4.88;;;15.90;99.90;;;;;;5107456;27;20475;-79
2022/07/18 02:09:06;;;;;;;10.40;5.13;;;15.80;99.90;;;;;;5118243;27;20051;-79
2022/07/18 02:11:33;;;;;;;9.18;4.60;;;15.90;99.90;;;;;;5117644;27;20047;-78
2022/07/18 02:14:01;;;;;;;8.45;4.93;;;15.80;99.90;;;;;;5118376;27;20572;-77
2022/07/18 02:16:28;;;;;;;8.27;4.90;;;15.80;99.90;;;;;;5117686;27;20092;-78
2022/07/18 02:18:55;;;;;;;9.02;5.13;;;15.80;99.90;;;;;;5134124;27;20463;-78
2022/07/18 02:21:22;;;;;;;7.50;4.45;;;15.80;99.90;;;;;;5115902;28;20052;-78
2022/07/18 02:23:50;;;;;;;7.38;5.05;;;15.80;99.90;;;;;;5116004;28;20047;-79
2022/07/18 02:26:18;;;;;;;10.15;5.95;;;15.80;99.90;;;;;;5115042;28;20081;-78
2022/07/18 02:28:45;;;;;;;7.65;4.60;;;15.80;99.90;;;;;;5097443;28;20100;-79
2022/07/18 02:31:13;;;;;;;7.93;5.30;;;15.80;99.90;;;;;;5115201;28;20517;-78
2022/07/18 02:33:40;;;;;;;7.05;4.78;;;15.80;99.90;;;;;;5098108;27;20044;-78
2022/07/18 02:36:07;;;;;;;6.95;5.07;;;15.80;99.90;;;;;;5136513;27;20119;-78
2022/07/18 02:38:34;;;;;;;10.55;5.72;;;15.80;99.90;;;;;;5117725;27;20055;-78
2022/07/18 02:41:01;;;;;;;10.13;5.75;;;15.80;99.90;;;;;;5124571;27;20047;-79
2022/07/18 02:43:28;;;;;;;9.95;5.45;;;15.80;99.90;;;;;;5097212;28;20484;-78
2022/07/18 02:45:55;;;;;;;8.43;5.32;;;15.80;99.90;;;;;;5116600;28;20457;-77
2022/07/18 02:48:23;;;;;;;11.60;5.70;;;15.80;99.90;;;;;;5097400;28;20069;-77
2022/07/18 02:50:50;;;;;;;8.05;5.38;;;15.80;99.90;;;;;;5115303;28;20062;-77
2022/07/18 02:53:19;;;;;;;9.82;5.05;;;15.80;99.90;;;;;;5114710;28;20112;-78
2022/07/18 02:55:46;;;;;;;8.63;4.90;;;15.80;99.90;;;;;;5098719;28;20056;-77
2022/07/18 02:58:13;;;;;;;7.03;5.03;;;15.80;99.90;;;;;;5097672;28;20054;-76
2022/07/18 03:00:39;;;;;;;9.93;5.45;;;15.80;99.90;;;;;;5114392;28;20056;-78
2022/07/18 03:03:06;;;;;;;7.00;5.00;;;15.90;99.90;;;;;;5115355;28;20051;-78
2022/07/18 03:05:35;;;;;;;9.48;5.60;;;15.90;99.90;;;;;;5096617;28;20043;-78
2022/07/18 03:08:02;;;;;;;8.23;5.97;;;15.90;99.90;;;;;;5096223;28;20039;-80
2022/07/18 03:10:28;;;;;;;7.40;4.95;;;15.90;99.90;;;;;;5096775;28;20047;-79
2022/07/18 03:12:55;;;;;;;7.80;5.05;;;16.00;99.90;;;;;;5114665;28;20488;-80
2022/07/18 03:15:22;;;;;;;9.32;4.93;;;16.00;99.90;;;;;;5114401;28;20096;-80
2022/07/18 03:17:49;;;;;;;10.48;5.38;;;16.00;99.90;;;;;;5096510;28;20047;-80
2022/07/18 03:20:16;;;;;;;8.73;5.22;;;16.00;99.90;;;;;;5096473;28;20055;-80
2022/07/18 03:22:44;;;;;;;6.95;5.15;;;16.10;99.90;;;;;;5096058;28;20089;-80
2022/07/18 03:25:11;;;;;;;7.85;4.82;;;16.10;99.90;;;;;;5114593;28;20051;-77
2022/07/18 03:27:38;;;;;;;7.60;4.82;;;16.10;99.90;;;;;;5113999;28;20051;-78
2022/07/18 03:30:05;;;;;;;8.77;5.03;;;16.10;99.90;;;;;;5098580;27;20050;-78
2022/07/18 03:32:32;;;;;;;8.40;5.03;;;16.10;99.90;;;;;;5115949;27;20043;-79
2022/07/18 03:34:59;;;;;;;7.72;4.97;;;16.10;99.90;;;;;;5116629;27;20047;-78
2022/07/18 03:37:26;;;;;;;9.75;5.72;;;16.10;99.90;;;;;;5116475;27;20395;-78
2022/07/18 03:39:54;;;;;;;9.68;5.82;;;16.10;99.90;;;;;;5116238;27;20058;-78
2022/07/18 03:42:21;;;;;;;9.93;5.20;;;16.10;99.90;;;;;;5134583;27;20110;-78
2022/07/18 03:44:48;;;;;;;8.30;4.50;;;16.10;99.90;;;;;;5116327;27;20058;-80
2022/07/18 03:47:15;;;;;;;8.90;5.22;;;16.10;99.90;;;;;;5116291;27;20047;-80
2022/07/18 03:49:42;;;;;;;7.28;4.72;;;16.10;99.90;;;;;;5116048;27;20054;-80
2022/07/18 03:52:09;;;;;;;10.98;5.95;;;16.00;99.90;;;;;;5116869;27;20051;-80
2022/07/18 03:54:35;;;;;;;10.48;5.65;;;16.10;99.90;;;;;;5116298;28;20084;-80
2022/07/18 03:57:04;;;;;;;9.32;5.63;;;16.00;99.90;;;;;;5116212;28;20506;-80
2022/07/18 03:59:31;;;;;;;11.90;5.82;;;16.00;99.90;;;;;;5099937;28;20044;-82
2022/07/18 04:01:58;;;;;;;8.23;5.15;;;15.90;99.90;;;;;;5095785;28;20052;-80
2022/07/18 04:04:25;;;;;;;8.32;5.35;;;15.90;99.90;;;;;;5099074;28;20051;-81
2022/07/18 04:06:51;;;;;;;9.70;5.35;;;15.90;99.90;;;;;;5119849;28;20051;-79
2022/07/18 04:09:18;;;;;;;8.05;5.10;;;16.00;99.90;;;;;;5100436;28;20051;-80
2022/07/18 04:11:45;;;;;;;10.13;5.78;;;16.00;99.90;;;;;;5096235;28;20404;-79
2022/07/18 04:14:13;;;;;;;11.80;5.55;;;15.90;99.90;;;;;;5096440;28;20055;-77
2022/07/18 04:16:40;;;;;;;11.18;5.40;;;16.00;99.90;;;;;;5099926;28;20381;-79
2022/07/18 04:19:07;;;;;;;8.73;5.18;;;16.00;99.90;;;;;;5117487;28;20139;-78
2022/07/18 04:21:34;;;;;;;7.75;4.75;;;16.10;99.90;;;;;;5105544;28;20043;-78
2022/07/18 04:24:01;;;;;;;7.85;5.43;;;16.10;99.90;;;;;;5104279;28;20059;-79
2022/07/18 04:26:28;;;;;;;8.50;5.43;;;16.20;99.90;;;;;;5111528;28;20100;-80
2022/07/18 04:28:55;;;;;;;9.05;5.43;;;16.30;99.90;;;;;;5118130;28;20055;-78
2022/07/18 04:31:23;;;;;;;9.30;4.90;;;16.40;99.90;;;;;;5135092;28;20058;-78
2022/07/18 04:33:50;;;;;;;9.68;5.00;;;16.40;99.90;;;;;;5116250;28;20562;-78
2022/07/18 04:36:18;;;;;;;8.55;5.20;;;16.40;99.90;;;;;;5116432;28;20051;-83
2022/07/18 04:38:45;;;;;;;7.82;4.57;;;16.50;99.90;;;;;;5116233;28;20129;-82
2022/07/18 04:41:12;;;;;;;10.75;4.95;;;16.60;99.90;;;;;;5135838;27;20047;-78
2022/07/18 04:43:39;;;;;;;7.65;4.60;;;16.70;99.90;;;;;;5137911;27;20055;-77
2022/07/18 04:46:06;;;;;;;7.80;4.05;;;16.80;99.90;;;;;;5119516;27;20051;-77
2022/07/18 04:48:34;;;;;;;8.38;4.68;;;16.80;99.90;;;;;;5137998;27;20100;-80
2022/07/18 04:51:01;;;;;;;7.20;4.82;;;17.00;99.90;;;;;;5125650;27;20047;-76
2022/07/18 04:53:28;;;;;;;6.57;4.20;;;17.00;99.90;;;;;;5118835;27;20096;-76
2022/07/18 04:55:55;;;;;;;7.15;4.45;;;17.10;99.90;;;;;;5104055;27;20092;-77
2022/07/18 04:58:22;;;;;;;4.90;3.22;;;17.20;99.90;;;;;;5120036;27;20051;-74
2022/07/18 05:00:48;;;;;;;10.40;4.43;;;17.30;99.90;;;;;;5114141;27;20412;-74
2022/07/18 05:03:15;;;;;;;7.45;4.65;;;17.40;99.90;;;;;;5130026;27;20440;-76
2022/07/18 05:05:44;;;;;;;7.38;4.55;;;17.40;99.90;;;;;;5114290;27;20051;-76
2022/07/18 05:08:11;;;;;;;8.40;4.30;;;17.50;99.90;;;;;;5131005;27;20411;-74
2022/07/18 05:10:39;;;;;;;8.27;4.32;;;17.50;99.90;;;;;;5133578;27;20070;-75
2022/07/18 05:13:05;;;;;;;6.13;4.30;;;17.40;99.90;;;;;;5134388;27;20101;-75
2022/07/18 05:15:32;;;;;;;7.20;4.63;;;17.40;99.90;;;;;;5115732;27;20055;-77
2022/07/18 05:17:59;;;;;;;8.52;4.03;;;17.40;99.90;;;;;;5116936;27;20115;-76
2022/07/18 05:20:27;;;;;;;7.47;4.63;;;17.40;99.90;;;;;;5132133;27;20043;-78
2022/07/18 05:22:55;;;;;;;6.82;4.30;;;17.40;99.90;;;;;;5129394;27;20104;-75
2022/07/18 05:25:24;;;;;;;7.63;5.03;;;17.40;99.90;;;;;;5133590;27;20051;-77
2022/07/18 05:27:52;;;;;;;9.55;4.80;;;17.50;99.90;;;;;;5113675;27;20057;-77
2022/07/18 05:30:20;;;;;;;7.35;4.88;;;17.50;99.90;;;;;;5133118;27;20126;-77
2022/07/18 05:32:49;;;;;;;10.13;5.03;;;17.50;99.90;;;;;;5117172;27;20075;-76
2022/07/18 05:35:16;;;;;;;7.82;4.32;;;17.60;99.90;;;;;;5131329;27;20126;-77
2022/07/18 05:37:44;;;;;;;9.50;3.63;;;17.60;99.90;;;;;;5111326;27;20051;-79
2022/07/18 05:40:15;;;;;;;7.65;3.95;;;17.60;99.90;;;;;;5112220;27;20054;-77
2022/07/18 05:42:42;;;;;;;;;;;17.70;99.90;;;;;;5113550;27;20103;-76
2022/07/18 05:45:11;;;;;;;8.27;3.60;;;17.70;99.90;;;;;;5128058;27;19923;-75
2022/07/18 05:47:38;;;;;;;12.18;3.80;;;17.80;99.90;;;;;;5126171;27;20068;-75
2022/07/18 05:50:06;;;;;;;6.15;3.90;;;17.80;99.90;;;;;;5133584;27;20575;-75
2022/07/18 05:52:34;;;;;;;7.47;3.28;;;17.90;99.90;;;;;;5115379;27;20141;-76
2022/07/18 05:55:01;;;;;;;9.15;3.70;;;17.90;99.90;;;;;;5115047;27;20583;-76
2022/07/18 05:57:30;;;;;;;5.30;3.10;;;18.00;99.90;;;;;;5127234;27;20452;-81
2022/07/18 05:59:58;;;;;;;6.18;3.35;;;18.10;99.90;;;;;;5128592;27;20043;-78
2022/07/18 06:02:25;;;;;;;8.25;3.33;;;18.20;99.90;;;;;;5128040;27;20150;-77
2022/07/18 06:04:52;;;;;;;4.65;3.20;;;18.30;99.90;;;;;;5130134;27;20068;-78
2022/07/18 06:07:20;;;;;;;5.55;3.22;;;18.40;99.90;;;;;;5130961;27;20047;-76
2022/07/18 06:09:47;;;;;;;5.72;3.75;;;18.50;99.90;;;;;;5106447;27;20058;-78
2022/07/18 06:12:16;;;;;;;8.65;3.45;;;18.70;99.90;;;;;;5112639;27;20092;-75
2022/07/18 06:14:45;;;;;;;4.93;3.53;;;18.80;99.90;;;;;;5110889;27;20078;-76
2022/07/18 06:17:13;;;;;;;5.65;3.30;;;19.00;99.90;;;;;;5111134;27;20032;-77
2022/07/18 06:19:41;;;;;;;5.70;3.20;;;19.10;99.90;;;;;;5110851;27;20054;-77
2022/07/18 06:22:09;;;;;;;6.00;3.50;;;19.20;99.90;;;;;;5113305;27;20084;-77
2022/07/18 06:24:36;;;;;;;6.00;3.35;;;19.40;99.90;;;;;;5127765;27;20100;-77
2022/07/18 06:27:03;;;;;;;4.93;3.35;;;19.60;99.90;;;;;;5110252;27;20047;-77
2022/07/18 06:29:31;;;;;;;5.55;3.30;;;19.80;99.90;;;;;;5131669;27;20059;-76
2022/07/18 06:32:00;;;;;;;5.38;2.83;;;20.00;99.90;;;;;;5132782;27;20119;-76
2022/07/18 06:34:27;;;;;;;5.03;2.97;;;20.30;99.90;;;;;;5113701;27;20410;-76
2022/07/18 06:36:55;;;;;;;4.95;3.00;;;20.60;99.90;;;;;;5130861;27;20387;-76
2022/07/18 06:39:22;;;;;;;5.13;2.80;;;20.80;99.90;;;;;;5108818;27;20107;-76
2022/07/18 06:41:50;;;;;;;4.28;2.55;;;20.90;99.90;;;;;;5128845;27;20035;-77
2022/07/18 06:44:17;;;;;;;5.47;2.78;;;21.00;99.90;;;;;;5114819;27;20072;-76
2022/07/18 06:46:44;;;;;;;5.47;2.30;;;21.10;99.90;;;;;;5131010;27;20108;-76
2022/07/18 06:49:12;;;;;;;5.43;3.00;;;21.20;99.90;;;;;;5131430;27;20046;-77
2022/07/18 06:51:39;;;;;;;7.25;2.60;;;21.30;99.90;;;;;;5131721;27;20050;-75
2022/07/18 06:54:06;;;;;;;6.25;2.72;;;21.50;99.90;;;;;;5107949;27;20054;-79
2022/07/18 06:56:33;;;;;;;8.55;2.63;;;21.80;99.90;;;;;;5127240;27;20408;-79
2022/07/18 06:59:00;;;;;;;10.57;3.00;;;22.20;99.40;;;;;;5113992;27;20498;-79
2022/07/18 07:01:27;;;;;;;6.13;3.05;;;22.60;98.70;;;;;;5127656;27;20079;-78
2022/07/18 07:03:54;;;;;;;6.03;2.72;;;22.90;97.90;;;;;;5127667;27;20109;-78
2022/07/18 07:06:22;;;;;;;4.95;2.33;;;23.00;97.50;;;;;;5110608;27;20101;-79
2022/07/18 07:08:49;;;;;;;5.65;2.63;;;23.10;97.30;;;;;;5112862;27;20565;-78
2022/07/18 07:11:15;;;;;;;5.82;2.35;;;23.10;96.80;;;;;;5127008;27;20507;-80
2022/07/18 07:13:42;;;;;;;5.70;2.42;;;23.20;96.70;;;;;;5126706;27;20104;-80
2022/07/18 07:16:09;;;;;;;4.40;2.33;;;23.50;96.30;;;;;;5128779;27;20437;-79
2022/07/18 07:18:36;;;;;;;5.97;2.50;;;23.60;95.70;;;;;;5108592;27;20051;-79
2022/07/18 07:21:03;;;;;;;6.57;2.22;;;23.70;95.30;;;;;;5131389;27;20043;-79
2022/07/18 07:23:31;;;;;;;5.28;1.85;;;24.00;95.00;;;;;;5108089;27;20063;-78
2022/07/18 07:25:58;;;;;;;3.05;1.75;;;24.20;94.50;;;;;;5125830;27;20047;-79
2022/07/18 07:28:25;;;;;;;5.88;2.17;;;24.30;93.70;;;;;;5119003;27;20047;-79
2022/07/18 07:30:52;;;;;;;10.05;2.33;;;24.60;93.40;;;;;;5112130;28;20043;-79
2022/07/18 07:33:19;;;;;;;4.05;2.05;;;25.30;93.00;;;;;;5128077;27;20101;-79
2022/07/18 07:35:46;;;;;;;6.22;2.03;;;25.70;92.40;;;;;;5111880;27;20043;-79
2022/07/18 07:38:18;;;;;;;6.57;1.90;;;26.00;91.80;;;;;;5122180;27;20103;-79
2022/07/18 07:40:46;;;;;;;6.07;2.33;;;26.50;90.20;;;;;;5110857;27;20075;-79
2022/07/18 07:43:15;;;;;;;5.25;2.38;;;26.70;89.30;;;;;;5112611;27;20437;-79
2022/07/18 07:45:43;;;;;;;3.85;2.03;;;27.20;87.70;;;;;;5114321;28;20047;-78
2022/07/18 07:48:10;;;;;;;4.93;2.30;;;27.40;85.50;;;;;;5109096;28;20051;-80
2022/07/18 07:50:37;;;;;;;5.78;1.75;;;27.10;84.60;;;;;;5111983;27;20054;-81
2022/07/18 07:53:05;;;;;;;3.78;1.95;;;26.80;84.40;;;;;;5106982;27;20490;-79
2022/07/18 07:55:32;;;;;;;3.35;1.70;;;26.70;84.80;;;;;;5113789;27;20039;-78
2022/07/18 07:58:00;;;;;;;3.20;1.63;;;26.80;84.50;;;;;;5127249;27;20047;-80
2022/07/18 08:00:28;;;;;;;5.63;2.08;;;26.90;83.40;;;;;;5127488;27;20526;-78
2022/07/18 08:02:57;;;;;;;4.72;1.98;;;27.30;83.20;;;;;;5109698;28;20144;-80
2022/07/18 08:05:25;;;;;;;4.50;1.83;;;27.60;82.40;;;;;;5107915;28;20092;-79
2022/07/18 08:07:53;;;;;;;3.47;1.80;;;27.60;81.50;;;;;;5114047;28;20046;-80
2022/07/18 08:10:20;;;;;;;7.53;2.03;;;27.70;80.60;;;;;;5108222;28;20051;-80
2022/07/18 08:12:47;;;;;;;4.10;2.05;;;27.70;80.20;;;;;;5131369;28;20043;-80
2022/07/18 08:15:15;;;;;;;3.38;1.52;;;27.70;80.10;;;;;;5115897;27;20058;-80
2022/07/18 08:17:42;;;;;;;4.35;1.70;;;27.80;78.10;;;;;;5114338;27;20051;-80
2022/07/18 08:20:11;;;;;;;3.78;1.90;;;28.10;78.20;;;;;;5132185;27;20059;-79
2022/07/18 08:22:52;;;;;;;5.63;1.60;;;28.40;77.50;;;;;;5132853;27;20135;-79
2022/07/18 08:25:20;;;;;;;7.68;1.95;;;29.00;76.80;;;;;;5117336;27;20080;-79
2022/07/18 08:27:47;;;;;;;4.97;1.75;;;29.40;75.90;;;;;;5130569;27;20555;-79
2022/07/18 08:30:16;;;;;;;2.88;1.40;;;29.80;73.40;;;;;;5135675;27;20047;-79
2022/07/18 08:32:43;;;;;;;6.90;1.73;;;30.20;72.40;;;;;;5110627;27;20054;-80
2022/07/18 08:35:10;;;;;;;8.40;1.90;;;30.30;71.80;;;;;;5113808;27;20055;-80
2022/07/18 08:37:37;;;;;;;6.38;1.60;;;30.20;70.50;;;;;;5113546;27;20062;-79
2022/07/18 08:40:04;;;;;;;3.00;1.30;;;30.00;70.60;;;;;;5088087;27;20549;-78
2022/07/18 08:42:34;;;;;;;6.30;1.65;;;29.90;70.00;;;;;;5116995;27;20486;-79
2022/07/18 08:45:01;;;;;;;24.67;2.03;;;29.90;70.20;;;;;;5114547;27;20043;-79
2022/07/18 08:47:31;;;;;;;3.90;1.50;;;29.80;70.00;;;;;;5115452;27;20130;-79
2022/07/18 08:49:59;;;;;;;4.32;1.67;;;29.50;68.90;;;;;;5135529;27;20076;-80
2022/07/18 08:52:27;;;;;;;4.60;1.42;;;29.40;69.00;;;;;;5115706;27;20078;-79
2022/07/18 08:54:53;;;;;;;9.75;1.92;;;29.40;68.90;;;;;;5111113;27;20047;-80
2022/07/18 08:57:21;;;;;;;5.50;1.60;;;29.30;69.20;;;;;;5112716;28;20051;-80
2022/07/18 08:59:47;;;;;;;4.93;1.40;;;29.10;69.00;;;;;;5117334;27;20514;-79
2022/07/18 09:02:14;;;;;;;4.55;1.58;;;28.80;69.70;;;;;;5135169;27;20051;-80
2022/07/18 09:04:45;;;;;;;4.20;1.50;;;28.60;70.00;;;;;;5127810;27;20044;-79
2022/07/18 09:07:24;;;;;;;3.55;1.48;;;28.40;70.20;;;;;;5125915;27;20578;-80
2022/07/18 09:09:54;;;;;;;5.55;1.63;;;28.40;71.20;;;;;;5114650;27;20050;-80
2022/07/18 09:12:21;;;;;;;;;;;28.60;70.70;;;;;;5120111;27;20549;-79
2022/07/18 09:14:48;;;;;;;14.82;3.50;;;28.70;70.70;;;;;;5118232;27;20037;-80
2022/07/18 09:17:17;;;;;;;3.95;1.70;;;29.00;71.50;;;;;;5108816;27;20055;-80
2022/07/18 09:19:58;;;;;;;4.82;1.67;;;29.20;70.70;;;;;;5134493;27;20051;-80
2022/07/18 09:22:26;;;;;;;5.35;1.67;;;29.40;70.40;;;;;;5134050;27;20040;-79
2022/07/18 09:24:59;;;;;;;3.58;1.30;;;29.50;70.00;;;;;;5133496;27;20047;-80
2022/07/18 09:27:31;;;;;;;7.30;2.10;;;29.90;70.00;;;;;;5133371;27;20050;-80
2022/07/18 09:30:24;;;;;;;5.25;1.80;;;30.40;69.20;;;;;;5110370;27;20039;-80
2022/07/18 09:32:52;;;;;;;21.75;2.47;;;30.90;68.60;;;;;;5112734;27;20498;-81
2022/07/18 09:35:23;;;;;;;11.02;1.30;;;31.40;68.50;;;;;;5116260;27;20474;-83
2022/07/18 09:38:12;;;;;;;4.18;1.60;;;31.80;66.10;;;;;;5112768;27;20543;-84
2022/07/18 09:40:41;;;;;;;3.58;1.40;;;32.10;63.30;;;;;;5108167;27;20463;-83
2022/07/18 09:43:09;;;;;;;4.43;1.30;;;32.20;64.80;;;;;;5114511;27;20039;-85
2022/07/18 09:45:38;;;;;;;2.83;1.42;;;32.20;64.10;;;;;;5139032;27;20410;-83
2022/07/18 09:48:07;;;;;;;3.80;1.55;;;32.10;63.10;;;;;;5106402;27;20059;-83
2022/07/18 09:50:37;;;;;;;8.73;1.63;;;32.00;62.20;;;;;;5135467;27;20058;-83
2022/07/18 09:53:10;;;;;;;7.72;1.40;;;32.30;62.50;;;;;;5113523;27;20084;-83
2022/07/18 09:55:43;;;;;;;4.72;1.60;;;32.50;62.20;;;;;;5112298;27;20047;-83
2022/07/18 09:58:10;;;;;;;6.75;1.73;;;32.60;60.60;;;;;;5130109;27;20066;-82
2022/07/18 10:00:40;;;;;;;3.80;1.33;;;32.70;61.20;;;;;;5114996;27;20526;-82
2022/07/18 10:03:08;;;;;;;4.43;1.40;;;33.00;60.40;;;;;;5112393;27;20091;-84
2022/07/18 10:05:38;;;;;;;3.17;1.45;;;33.20;60.60;;;;;;5132713;27;20047;-83
2022/07/18 10:08:07;;;;;;;4.20;1.52;;;33.70;59.50;;;;;;5131632;27;20043;-84
2022/07/18 10:10:35;;;;;;;3.17;1.27;;;33.70;59.70;;;;;;5112105;27;20510;-83
2022/07/18 10:13:03;;;;;;;3.03;1.48;;;33.80;59.60;;;;;;5110592;27;20043;-83
2022/07/18 10:15:31;;;;;;;7.78;2.13;;;33.90;59.70;;;;;;5109569;27;20096;-82
2022/07/18 10:18:00;;;;;;;3.10;1.50;;;34.00;58.80;;;;;;5125096;27;20047;-82
2022/07/18 10:20:29;;;;;;;4.35;1.70;;;34.00;58.50;;;;;;5115259;27;20506;-83
2022/07/18 10:23:02;;;;;;;4.57;1.77;;;34.10;57.70;;;;;;5112930;27;20113;-82
2022/07/18 10:25:29;;;;;;;4.30;1.98;;;33.90;57.30;;;;;;5128163;27;20498;-84
2022/07/18 10:28:06;;;;;;;5.32;2.22;;;34.00;56.90;;;;;;5114487;27;20070;-83
2022/07/18 10:30:36;;;;;;;3.38;1.70;;;34.10;56.50;;;;;;5126787;27;20058;-83
2022/07/18 10:33:04;;;;;;;4.68;2.03;;;34.30;56.50;;;;;;5114910;27;20051;-83
2022/07/18 10:36:00;;;;;;;4.30;2.33;;;34.40;55.80;;;;;;5130070;27;20047;-82
2022/07/18 10:38:29;;;;;;;4.70;1.92;;;34.50;55.60;;;;;;5113694;27;20111;-84
2022/07/18 10:41:08;;;;;;;4.35;1.75;;;34.30;56.00;;;;;;5113249;27;20499;-83
2022/07/18 10:43:45;;;;;;;3.08;1.73;;;34.40;55.10;;;;;;5112116;27;20046;-84
2022/07/18 10:46:13;;;;;;;5.32;2.20;;;34.60;54.80;;;;;;5111249;27;20126;-82
2022/07/18 10:48:58;;;;;;;3.72;2.15;;;34.70;54.60;;;;;;5134216;27;20055;-83
2022/07/18 10:51:33;;;;;;;4.10;2.10;;;35.10;52.30;;;;;;5114097;27;20051;-84
2022/07/18 10:54:15;;;;;;;6.95;2.38;;;35.70;53.50;;;;;;5115063;27;20050;-83
2022/07/18 10:57:11;;;;;;;5.05;2.15;;;35.90;52.60;;;;;;5112197;28;20429;-82
2022/07/18 11:00:00;;;;;;;4.13;1.65;;;36.00;52.30;;;;;;5109768;27;20475;-82
2022/07/18 11:02:35;;;;;;;4.95;1.77;;;36.20;53.40;;;;;;5128312;27;20079;-83
2022/07/18 11:05:02;;;;;;;3.92;1.85;;;36.20;52.20;;;;;;5128289;27;20039;-83
2022/07/18 11:07:29;;;;;;;4.72;1.70;;;36.60;52.30;;;;;;5123723;27;20044;-83
2022/07/18 11:09:57;;;;;;;5.80;2.38;;;36.70;51.90;;;;;;5129267;27;20047;-82
2022/07/18 11:12:29;;;;;;;4.60;1.85;;;36.70;51.80;;;;;;5110499;27;20043;-81
2022/07/18 11:15:07;;;;;;;6.50;2.35;;;36.80;52.00;;;;;;5110534;27;20027;-82
2022/07/18 11:18:03;;;;;;;4.47;2.22;;;36.80;51.20;;;;;;5108354;27;20043;-83
2022/07/18 11:20:41;;;;;;;3.83;2.05;;;36.80;51.00;;;;;;5110407;27;20391;-83
2022/07/18 11:23:17;;;;;;;5.18;1.90;;;36.90;50.60;;;;;;5127817;27;20069;-83
2022/07/18 11:25:47;;;;;;;3.15;1.95;;;36.90;50.30;;;;;;5114427;27;20091;-83
2022/07/18 11:28:14;;;;;;;3.97;1.88;;;36.90;50.30;;;;;;5127675;27;20047;-84
2022/07/18 11:30:42;;;;;;;5.47;2.22;;;36.80;50.10;;;;;;5111990;27;20057;-82
2022/07/18 11:33:22;;;;;;;3.67;2.30;;;36.80;50.50;;;;;;5109613;27;20373;-83
2022/07/18 11:35:51;;;;;;;3.78;2.15;;;37.00;50.50;;;;;;5109267;27;20155;-82
2022/07/18 11:38:18;;;;;;;3.10;1.80;;;37.20;50.70;;;;;;5126488;27;20047;-83
2022/07/18 11:40:51;;;;;;;3.38;2.47;;;37.40;50.60;;;;;;5108288;27;20043;-83
2022/07/18 11:43:22;;;;;;;7.05;3.28;;;37.30;49.00;;;;;;5111094;28;20040;-83
2022/07/18 11:45:59;;;;;;;6.63;2.60;;;37.20;49.30;;;;;;5126392;27;20357;-83
2022/07/18 11:48:25;;;;;;;8.02;3.88;;;37.10;49.40;;;;;;5112175;27;20514;-83
2022/07/18 11:50:52;;;;;;;5.25;2.40;;;37.20;49.80;;;;;;5120346;27;20043;-82
2022/07/18 11:53:19;;;;;;;6.07;2.80;;;37.30;49.60;;;;;;5138973;27;20047;-82
2022/07/18 11:55:48;;;;;;;3.95;2.58;;;37.40;48.50;;;;;;5138384;27;20107;-83
2022/07/18 11:58:17;;;;;;;4.85;2.17;;;37.50;48.30;;;;;;5110845;28;20104;-83
2022/07/18 12:00:46;;;;;;;4.47;2.60;;;37.70;48.60;;;;;;5112658;27;20055;-84
2022/07/18 12:03:14;;;;;;;4.07;2.50;;;37.70;48.50;;;;;;5130175;27;20047;-82
2022/07/18 12:05:44;;;;;;;4.13;2.40;;;37.90;48.00;;;;;;5109453;28;20051;-82
2022/07/18 12:08:32;;;;;;;3.22;2.30;;;38.10;48.50;;;;;;5127619;28;20047;-82
2022/07/18 12:11:26;;;;;;;3.70;2.50;;;38.10;47.80;;;;;;5093099;27;20048;-82
2022/07/18 12:13:56;;;;;;;3.65;2.30;;;38.40;48.10;;;;;;5085837;28;20050;-83
2022/07/18 12:16:35;;;;;;;6.13;2.75;;;38.20;48.80;;;;;;5129931;28;20043;-82
2022/07/18 12:19:07;;;;;;;5.18;2.50;;;38.30;47.40;;;;;;5128467;28;20495;-82
2022/07/18 12:21:43;;;;;;;5.03;3.05;;;38.20;48.00;;;;;;5109979;28;20043;-83
2022/07/18 12:24:23;;;;;;;4.63;2.80;;;38.20;47.20;;;;;;5126802;28;20047;-84
2022/07/18 12:26:57;;;;;;;5.40;2.90;;;38.50;47.70;;;;;;5110130;28;20050;-83
2022/07/18 12:29:25;;;;;;;4.65;2.72;;;38.70;47.90;;;;;;5130343;28;20039;-82
2022/07/18 12:31:52;;;;;;;4.15;2.90;;;39.10;46.90;;;;;;5113046;28;20514;-83
2022/07/18 12:34:19;;;;;;;5.13;2.50;;;38.80;47.30;;;;;;5127703;28;20047;-83
2022/07/18 12:36:53;;;;;;;5.40;2.30;;;38.00;47.70;;;;;;5111962;28;20051;-84
2022/07/18 12:39:30;;;;;;;6.20;2.70;;;37.70;47.70;;;;;;5110315;28;20050;-83
2022/07/18 12:41:59;;;;;;;4.97;2.90;;;37.70;47.70;;;;;;5126856;28;20044;-82
2022/07/18 12:44:28;;;;;;;4.05;2.92;;;37.60;48.00;;;;;;5113725;28;20050;-84
2022/07/18 12:46:56;;;;;;;3.38;2.35;;;37.60;48.40;;;;;;5131199;28;20092;-82
2022/07/18 12:49:23;;;;;;;4.97;2.80;;;37.50;48.60;;;;;;5133641;28;20058;-84
2022/07/18 12:51:51;;;;;;;4.88;3.03;;;37.10;48.60;;;;;;5106837;28;20051;-83
2022/07/18 12:54:19;;;;;;;6.45;2.60;;;36.50;49.00;;;;;;5109972;28;20104;-83
2022/07/18 12:56:46;;;;;;;4.57;2.57;;;36.20;49.20;;;;;;5128298;28;20499;-83